sensor_id;sensor_type;location;lat;lon;timestamp;P1;durP1;ratioP1;P2;durP2;ratioP2
31262;SDS011;17892;52.080;9.006;2023-11-21T00:01:41;13.18;;;6.22;;
31262;SDS011;17892;52.080;9.006;2023-11-21T00:04:06;10.90;;;5.22;;
31262;SDS011;17892;52.080;9.006;2023-11-21T00:06:32;11.63;;;6.13;;
31262;SDS011;17892;52.080;9.006;2023-11-21T00:08:59;12.38;;;5.97;;
31262;SDS011;17892;52.080;9.006;2023-11-21T00:11:24;14.45;;;6.32;;
31262;SDS011;17892;52.080;9.006;2023-11-21T00:13:50;11.32;;;5.20;;
31262;SDS011;17892;52.080;9.006;2023-11-21T00:16:16;11.15;;;5.95;;
31262;SDS011;17892;52.080;9.006;2023-11-21T00:18:42;12.02;;;6.03;;
31262;SDS011;17892;52.080;9.006;2023-11-21T00:21:08;15.30;;;6.10;;
31262;SDS011;17892;52.080;9.006;2023-11-21T00:23:34;12.10;;;6.25;;
31262;SDS011;17892;52.080;9.006;2023-11-21T00:26:00;12.43;;;6.00;;
31262;SDS011;17892;52.080;9.006;2023-11-21T00:28:26;10.32;;;5.80;;
31262;SDS011;17892;52.080;9.006;2023-11-21T00:30:51;12.25;;;5.43;;
31262;SDS011;17892;52.080;9.006;2023-11-21T00:33:17;9.50;;;4.90;;
31262;SDS011;17892;52.080;9.006;2023-11-21T00:35:43;9.27;;;4.85;;
31262;SDS011;17892;52.080;9.006;2023-11-21T00:38:08;9.13;;;4.82;;
31262;SDS011;17892;52.080;9.006;2023-11-21T00:40:34;12.23;;;5.50;;
31262;SDS011;17892;52.080;9.006;2023-11-21T00:43:00;14.95;;;5.95;;
31262;SDS011;17892;52.080;9.006;2023-11-21T00:45:26;13.38;;;6.35;;
31262;SDS011;17892;52.080;9.006;2023-11-21T00:47:51;11.75;;;5.78;;
31262;SDS011;17892;52.080;9.006;2023-11-21T00:50:17;11.57;;;6.18;;
31262;SDS011;17892;52.080;9.006;2023-11-21T00:52:44;15.25;;;6.88;;
31262;SDS011;17892;52.080;9.006;2023-11-21T00:55:10;11.50;;;5.53;;
31262;SDS011;17892;52.080;9.006;2023-11-21T00:57:36;11.27;;;4.80;;
31262;SDS011;17892;52.080;9.006;2023-11-21T01:00:02;12.98;;;6.15;;
31262;SDS011;17892;52.080;9.006;2023-11-21T01:02:39;10.27;;;5.10;;
31262;SDS011;17892;52.080;9.006;2023-11-21T01:05:05;10.32;;;5.60;;
31262;SDS011;17892;52.080;9.006;2023-11-21T01:07:33;9.20;;;4.80;;
31262;SDS011;17892;52.080;9.006;2023-11-21T01:09:58;11.32;;;5.80;;
31262;SDS011;17892;52.080;9.006;2023-11-21T01:12:24;9.85;;;5.32;;
31262;SDS011;17892;52.080;9.006;2023-11-21T01:14:50;11.50;;;5.68;;
31262;SDS011;17892;52.080;9.006;2023-11-21T01:17:16;12.43;;;6.15;;
31262;SDS011;17892;52.080;9.006;2023-11-21T01:19:43;13.20;;;6.68;;
31262;SDS011;17892;52.080;9.006;2023-11-21T01:22:08;12.43;;;6.57;;
31262;SDS011;17892;52.080;9.006;2023-11-21T01:24:36;9.85;;;5.32;;
31262;SDS011;17892;52.080;9.006;2023-11-21T01:27:02;10.25;;;5.55;;
31262;SDS011;17892;52.080;9.006;2023-11-21T01:29:29;12.20;;;6.30;;
31262;SDS011;17892;52.080;9.006;2023-11-21T01:31:55;10.75;;;6.00;;
31262;SDS011;17892;52.080;9.006;2023-11-21T01:34:22;11.15;;;6.72;;
31262;SDS011;17892;52.080;9.006;2023-11-21T01:36:48;14.15;;;7.45;;
31262;SDS011;17892;52.080;9.006;2023-11-21T01:39:15;13.48;;;7.75;;
31262;SDS011;17892;52.080;9.006;2023-11-21T01:41:48;12.02;;;6.72;;
31262;SDS011;17892;52.080;9.006;2023-11-21T01:44:15;11.43;;;6.05;;
31262;SDS011;17892;52.080;9.006;2023-11-21T01:46:41;10.88;;;5.57;;
31262;SDS011;17892;52.080;9.006;2023-11-21T01:49:07;11.15;;;6.20;;
31262;SDS011;17892;52.080;9.006;2023-11-21T01:51:38;12.30;;;6.72;;
31262;SDS011;17892;52.080;9.006;2023-11-21T01:54:06;10.80;;;5.63;;
31262;SDS011;17892;52.080;9.006;2023-11-21T01:56:32;10.77;;;6.00;;
31262;SDS011;17892;52.080;9.006;2023-11-21T01:58:59;11.65;;;5.47;;
31262;SDS011;17892;52.080;9.006;2023-11-21T02:01:25;11.43;;;5.47;;
31262;SDS011;17892;52.080;9.006;2023-11-21T02:03:51;12.05;;;5.65;;
31262;SDS011;17892;52.080;9.006;2023-11-21T02:06:17;11.05;;;4.88;;
31262;SDS011;17892;52.080;9.006;2023-11-21T02:08:43;10.27;;;5.00;;
31262;SDS011;17892;52.080;9.006;2023-11-21T02:11:09;10.65;;;5.22;;
31262;SDS011;17892;52.080;9.006;2023-11-21T02:13:38;10.80;;;4.45;;
31262;SDS011;17892;52.080;9.006;2023-11-21T02:16:08;9.55;;;4.47;;
31262;SDS011;17892;52.080;9.006;2023-11-21T02:18:37;15.68;;;7.05;;
31262;SDS011;17892;52.080;9.006;2023-11-21T02:21:04;10.52;;;5.25;;
31262;SDS011;17892;52.080;9.006;2023-11-21T02:23:30;9.98;;;5.07;;
31262;SDS011;17892;52.080;9.006;2023-11-21T02:25:56;11.65;;;5.25;;
31262;SDS011;17892;52.080;9.006;2023-11-21T02:28:22;9.05;;;4.53;;
31262;SDS011;17892;52.080;9.006;2023-11-21T02:30:51;9.30;;;4.65;;
31262;SDS011;17892;52.080;9.006;2023-11-21T02:33:24;7.82;;;3.75;;
31262;SDS011;17892;52.080;9.006;2023-11-21T02:35:50;8.43;;;3.92;;
31262;SDS011;17892;52.080;9.006;2023-11-21T02:38:19;10.73;;;5.03;;
31262;SDS011;17892;52.080;9.006;2023-11-21T02:40:48;10.23;;;4.90;;
31262;SDS011;17892;52.080;9.006;2023-11-21T02:43:14;10.93;;;5.22;;
31262;SDS011;17892;52.080;9.006;2023-11-21T02:45:40;11.15;;;5.80;;
31262;SDS011;17892;52.080;9.006;2023-11-21T02:48:06;12.02;;;5.60;;
31262;SDS011;17892;52.080;9.006;2023-11-21T02:50:32;9.73;;;5.13;;
31262;SDS011;17892;52.080;9.006;2023-11-21T02:53:00;14.57;;;5.70;;
31262;SDS011;17892;52.080;9.006;2023-11-21T02:55:26;12.43;;;5.35;;
31262;SDS011;17892;52.080;9.006;2023-11-21T02:57:52;11.23;;;5.47;;
31262;SDS011;17892;52.080;9.006;2023-11-21T03:00:21;11.77;;;5.47;;
31262;SDS011;17892;52.080;9.006;2023-11-21T03:02:49;8.88;;;4.53;;
31262;SDS011;17892;52.080;9.006;2023-11-21T03:05:14;7.70;;;3.97;;
31262;SDS011;17892;52.080;9.006;2023-11-21T03:07:40;8.73;;;4.20;;
31262;SDS011;17892;52.080;9.006;2023-11-21T03:10:06;8.70;;;4.53;;
31262;SDS011;17892;52.080;9.006;2023-11-21T03:12:36;8.95;;;4.40;;
31262;SDS011;17892;52.080;9.006;2023-11-21T03:15:04;8.75;;;4.25;;
31262;SDS011;17892;52.080;9.006;2023-11-21T03:17:31;10.23;;;4.88;;
31262;SDS011;17892;52.080;9.006;2023-11-21T03:19:58;8.80;;;5.10;;
31262;SDS011;17892;52.080;9.006;2023-11-21T03:22:28;10.07;;;4.95;;
31262;SDS011;17892;52.080;9.006;2023-11-21T03:24:54;9.02;;;4.75;;
31262;SDS011;17892;52.080;9.006;2023-11-21T03:27:20;8.68;;;4.70;;
31262;SDS011;17892;52.080;9.006;2023-11-21T03:29:45;8.73;;;4.32;;
31262;SDS011;17892;52.080;9.006;2023-11-21T03:32:13;8.48;;;3.72;;
31262;SDS011;17892;52.080;9.006;2023-11-21T03:34:52;9.68;;;4.18;;
31262;SDS011;17892;52.080;9.006;2023-11-21T03:37:22;12.63;;;4.60;;
31262;SDS011;17892;52.080;9.006;2023-11-21T03:39:49;9.57;;;4.35;;
31262;SDS011;17892;52.080;9.006;2023-11-21T03:42:15;8.15;;;4.30;;
31262;SDS011;17892;52.080;9.006;2023-11-21T03:44:42;7.65;;;3.90;;
31262;SDS011;17892;52.080;9.006;2023-11-21T03:47:07;9.55;;;5.32;;
31262;SDS011;17892;52.080;9.006;2023-11-21T03:49:33;8.95;;;4.95;;
31262;SDS011;17892;52.080;9.006;2023-11-21T03:55:40;11.65;;;5.78;;
31262;SDS011;17892;52.080;9.006;2023-11-21T03:58:05;10.07;;;4.90;;
31262;SDS011;17892;52.080;9.006;2023-11-21T04:00:31;11.27;;;5.22;;
31262;SDS011;17892;52.080;9.006;2023-11-21T04:02:57;10.70;;;4.45;;
31262;SDS011;17892;52.080;9.006;2023-11-21T04:05:23;10.57;;;5.90;;
31262;SDS011;17892;52.080;9.006;2023-11-21T04:07:50;11.98;;;4.88;;
31262;SDS011;17892;52.080;9.006;2023-11-21T04:10:16;11.13;;;5.35;;
31262;SDS011;17892;52.080;9.006;2023-11-21T04:12:43;10.23;;;4.70;;
31262;SDS011;17892;52.080;9.006;2023-11-21T04:15:09;11.07;;;6.47;;
31262;SDS011;17892;52.080;9.006;2023-11-21T04:17:36;14.93;;;6.40;;
31262;SDS011;17892;52.080;9.006;2023-11-21T04:20:02;10.48;;;5.43;;
31262;SDS011;17892;52.080;9.006;2023-11-21T04:22:33;10.43;;;5.20;;
31262;SDS011;17892;52.080;9.006;2023-11-21T04:24:59;9.95;;;4.63;;
31262;SDS011;17892;52.080;9.006;2023-11-21T04:27:24;10.25;;;4.80;;
31262;SDS011;17892;52.080;9.006;2023-11-21T04:29:50;13.65;;;5.88;;
31262;SDS011;17892;52.080;9.006;2023-11-21T04:32:15;10.13;;;5.32;;
31262;SDS011;17892;52.080;9.006;2023-11-21T04:34:41;10.60;;;5.18;;
31262;SDS011;17892;52.080;9.006;2023-11-21T04:37:07;9.10;;;4.35;;
31262;SDS011;17892;52.080;9.006;2023-11-21T04:39:34;10.23;;;5.20;;
31262;SDS011;17892;52.080;9.006;2023-11-21T04:42:00;10.18;;;4.75;;
31262;SDS011;17892;52.080;9.006;2023-11-21T04:44:25;11.40;;;5.15;;
31262;SDS011;17892;52.080;9.006;2023-11-21T04:46:51;12.68;;;4.90;;
31262;SDS011;17892;52.080;9.006;2023-11-21T04:49:16;10.25;;;4.35;;
31262;SDS011;17892;52.080;9.006;2023-11-21T04:51:42;11.02;;;5.32;;
31262;SDS011;17892;52.080;9.006;2023-11-21T04:54:08;9.50;;;4.43;;
31262;SDS011;17892;52.080;9.006;2023-11-21T04:56:34;13.00;;;4.72;;
31262;SDS011;17892;52.080;9.006;2023-11-21T04:58:59;12.02;;;5.65;;
31262;SDS011;17892;52.080;9.006;2023-11-21T05:01:25;9.90;;;4.45;;
31262;SDS011;17892;52.080;9.006;2023-11-21T05:03:51;12.80;;;6.07;;
31262;SDS011;17892;52.080;9.006;2023-11-21T05:06:17;10.55;;;4.70;;
31262;SDS011;17892;52.080;9.006;2023-11-21T05:08:43;13.38;;;6.18;;
31262;SDS011;17892;52.080;9.006;2023-11-21T05:11:08;11.10;;;4.32;;
31262;SDS011;17892;52.080;9.006;2023-11-21T05:13:35;11.57;;;5.35;;
31262;SDS011;17892;52.080;9.006;2023-11-21T05:16:01;10.25;;;4.60;;
31262;SDS011;17892;52.080;9.006;2023-11-21T05:18:32;9.50;;;5.00;;
31262;SDS011;17892;52.080;9.006;2023-11-21T05:20:59;10.50;;;4.80;;
31262;SDS011;17892;52.080;9.006;2023-11-21T05:23:25;10.52;;;5.18;;
31262;SDS011;17892;52.080;9.006;2023-11-21T05:25:51;11.60;;;5.25;;
31262;SDS011;17892;52.080;9.006;2023-11-21T05:28:17;10.95;;;5.00;;
31262;SDS011;17892;52.080;9.006;2023-11-21T05:30:42;10.90;;;4.93;;
31262;SDS011;17892;52.080;9.006;2023-11-21T05:33:09;9.63;;;4.63;;
31262;SDS011;17892;52.080;9.006;2023-11-21T05:35:34;9.60;;;4.53;;
31262;SDS011;17892;52.080;9.006;2023-11-21T05:38:00;9.38;;;4.97;;
31262;SDS011;17892;52.080;9.006;2023-11-21T05:40:26;10.70;;;4.70;;
31262;SDS011;17892;52.080;9.006;2023-11-21T05:42:54;9.18;;;4.30;;
31262;SDS011;17892;52.080;9.006;2023-11-21T05:45:20;10.65;;;4.70;;
31262;SDS011;17892;52.080;9.006;2023-11-21T05:47:46;10.63;;;4.95;;
31262;SDS011;17892;52.080;9.006;2023-11-21T05:50:13;9.48;;;4.40;;
31262;SDS011;17892;52.080;9.006;2023-11-21T05:52:41;8.57;;;4.38;;
31262;SDS011;17892;52.080;9.006;2023-11-21T05:55:12;7.75;;;4.18;;
31262;SDS011;17892;52.080;9.006;2023-11-21T05:57:39;9.95;;;5.07;;
31262;SDS011;17892;52.080;9.006;2023-11-21T06:00:06;9.60;;;4.22;;
31262;SDS011;17892;52.080;9.006;2023-11-21T06:02:46;8.77;;;4.70;;
31262;SDS011;17892;52.080;9.006;2023-11-21T06:05:15;9.32;;;4.13;;
31262;SDS011;17892;52.080;9.006;2023-11-21T06:07:43;10.23;;;4.53;;
31262;SDS011;17892;52.080;9.006;2023-11-21T06:10:10;10.05;;;5.82;;
31262;SDS011;17892;52.080;9.006;2023-11-21T06:12:39;9.60;;;4.57;;
31262;SDS011;17892;52.080;9.006;2023-11-21T06:15:07;8.23;;;4.00;;
31262;SDS011;17892;52.080;9.006;2023-11-21T06:17:35;10.43;;;4.90;;
31262;SDS011;17892;52.080;9.006;2023-11-21T06:20:01;10.45;;;4.82;;
31262;SDS011;17892;52.080;9.006;2023-11-21T06:22:34;9.25;;;5.43;;
31262;SDS011;17892;52.080;9.006;2023-11-21T06:25:01;9.35;;;4.68;;
31262;SDS011;17892;52.080;9.006;2023-11-21T06:27:29;10.90;;;5.03;;
31262;SDS011;17892;52.080;9.006;2023-11-21T06:30:06;12.80;;;5.82;;
31262;SDS011;17892;52.080;9.006;2023-11-21T06:32:34;9.35;;;4.53;;
31262;SDS011;17892;52.080;9.006;2023-11-21T06:35:01;13.77;;;5.97;;
31262;SDS011;17892;52.080;9.006;2023-11-21T06:37:29;8.90;;;4.20;;
31262;SDS011;17892;52.080;9.006;2023-11-21T06:39:56;11.77;;;5.43;;
31262;SDS011;17892;52.080;9.006;2023-11-21T06:42:23;7.88;;;4.38;;
31262;SDS011;17892;52.080;9.006;2023-11-21T06:44:52;9.10;;;4.43;;
31262;SDS011;17892;52.080;9.006;2023-11-21T06:47:29;10.90;;;4.40;;
31262;SDS011;17892;52.080;9.006;2023-11-21T06:49:55;9.13;;;3.97;;
31262;SDS011;17892;52.080;9.006;2023-11-21T06:52:22;10.43;;;5.40;;
31262;SDS011;17892;52.080;9.006;2023-11-21T06:54:48;8.75;;;4.55;;
31262;SDS011;17892;52.080;9.006;2023-11-21T06:57:16;11.93;;;4.68;;
31262;SDS011;17892;52.080;9.006;2023-11-21T06:59:42;7.95;;;4.03;;
31262;SDS011;17892;52.080;9.006;2023-11-21T07:02:08;10.25;;;4.78;;
31262;SDS011;17892;52.080;9.006;2023-11-21T07:04:34;11.32;;;4.82;;
31262;SDS011;17892;52.080;9.006;2023-11-21T07:07:01;8.95;;;4.35;;
31262;SDS011;17892;52.080;9.006;2023-11-21T07:09:28;7.93;;;3.92;;
31262;SDS011;17892;52.080;9.006;2023-11-21T07:11:54;8.70;;;3.88;;
31262;SDS011;17892;52.080;9.006;2023-11-21T07:14:20;7.65;;;3.90;;
31262;SDS011;17892;52.080;9.006;2023-11-21T07:16:46;7.50;;;3.38;;
31262;SDS011;17892;52.080;9.006;2023-11-21T07:19:12;7.55;;;3.90;;
31262;SDS011;17892;52.080;9.006;2023-11-21T07:21:39;9.52;;;4.40;;
31262;SDS011;17892;52.080;9.006;2023-11-21T07:24:06;6.15;;;2.60;;
31262;SDS011;17892;52.080;9.006;2023-11-21T07:26:33;7.43;;;3.45;;
31262;SDS011;17892;52.080;9.006;2023-11-21T07:29:00;6.95;;;2.92;;
31262;SDS011;17892;52.080;9.006;2023-11-21T07:31:27;5.55;;;2.88;;
31262;SDS011;17892;52.080;9.006;2023-11-21T07:33:54;7.10;;;3.45;;
31262;SDS011;17892;52.080;9.006;2023-11-21T07:36:22;5.10;;;2.33;;
31262;SDS011;17892;52.080;9.006;2023-11-21T07:38:48;6.65;;;2.58;;
31262;SDS011;17892;52.080;9.006;2023-11-21T07:41:15;6.90;;;3.30;;
31262;SDS011;17892;52.080;9.006;2023-11-21T07:43:42;5.80;;;3.00;;
31262;SDS011;17892;52.080;9.006;2023-11-21T07:46:09;7.32;;;3.33;;
31262;SDS011;17892;52.080;9.006;2023-11-21T07:48:37;7.88;;;3.15;;
31262;SDS011;17892;52.080;9.006;2023-11-21T07:51:04;5.90;;;2.75;;
31262;SDS011;17892;52.080;9.006;2023-11-21T07:53:30;6.68;;;2.40;;
31262;SDS011;17892;52.080;9.006;2023-11-21T07:55:56;7.90;;;2.97;;
31262;SDS011;17892;52.080;9.006;2023-11-21T07:58:23;5.50;;;2.08;;
31262;SDS011;17892;52.080;9.006;2023-11-21T08:00:49;4.20;;;1.92;;
31262;SDS011;17892;52.080;9.006;2023-11-21T08:03:15;4.78;;;2.20;;
31262;SDS011;17892;52.080;9.006;2023-11-21T08:05:41;5.32;;;2.25;;
31262;SDS011;17892;52.080;9.006;2023-11-21T08:08:07;5.20;;;2.92;;
31262;SDS011;17892;52.080;9.006;2023-11-21T08:10:33;4.05;;;1.92;;
31262;SDS011;17892;52.080;9.006;2023-11-21T08:13:00;6.30;;;3.45;;
31262;SDS011;17892;52.080;9.006;2023-11-21T08:15:27;3.92;;;2.22;;
31262;SDS011;17892;52.080;9.006;2023-11-21T08:17:53;4.93;;;2.50;;
31262;SDS011;17892;52.080;9.006;2023-11-21T08:20:18;5.65;;;2.65;;
31262;SDS011;17892;52.080;9.006;2023-11-21T08:22:44;4.93;;;2.40;;
31262;SDS011;17892;52.080;9.006;2023-11-21T08:25:12;3.95;;;1.83;;
31262;SDS011;17892;52.080;9.006;2023-11-21T08:27:38;3.90;;;1.60;;
31262;SDS011;17892;52.080;9.006;2023-11-21T08:30:04;3.78;;;1.55;;
31262;SDS011;17892;52.080;9.006;2023-11-21T08:32:31;3.28;;;1.58;;
31262;SDS011;17892;52.080;9.006;2023-11-21T08:34:58;4.15;;;1.75;;
31262;SDS011;17892;52.080;9.006;2023-11-21T08:37:24;4.00;;;2.08;;
31262;SDS011;17892;52.080;9.006;2023-11-21T08:39:52;3.25;;;1.67;;
31262;SDS011;17892;52.080;9.006;2023-11-21T08:42:18;3.45;;;1.55;;
31262;SDS011;17892;52.080;9.006;2023-11-21T08:44:44;3.88;;;2.03;;
31262;SDS011;17892;52.080;9.006;2023-11-21T08:47:10;3.95;;;2.08;;
31262;SDS011;17892;52.080;9.006;2023-11-21T08:49:37;4.68;;;1.80;;
31262;SDS011;17892;52.080;9.006;2023-11-21T08:52:03;2.90;;;1.27;;
31262;SDS011;17892;52.080;9.006;2023-11-21T08:54:30;3.33;;;1.58;;
31262;SDS011;17892;52.080;9.006;2023-11-21T08:56:56;3.38;;;1.40;;
31262;SDS011;17892;52.080;9.006;2023-11-21T08:59:23;3.28;;;1.25;;
31262;SDS011;17892;52.080;9.006;2023-11-21T09:01:51;2.25;;;1.00;;
31262;SDS011;17892;52.080;9.006;2023-11-21T09:04:17;3.40;;;1.60;;
31262;SDS011;17892;52.080;9.006;2023-11-21T09:06:43;3.03;;;1.17;;
31262;SDS011;17892;52.080;9.006;2023-11-21T09:09:08;2.83;;;1.30;;
31262;SDS011;17892;52.080;9.006;2023-11-21T09:11:35;2.47;;;1.17;;
31262;SDS011;17892;52.080;9.006;2023-11-21T09:14:02;3.03;;;1.42;;
31262;SDS011;17892;52.080;9.006;2023-11-21T09:16:28;3.33;;;1.63;;
31262;SDS011;17892;52.080;9.006;2023-11-21T09:18:55;4.28;;;1.95;;
31262;SDS011;17892;52.080;9.006;2023-11-21T09:21:20;3.35;;;1.67;;
31262;SDS011;17892;52.080;9.006;2023-11-21T09:23:46;3.03;;;1.63;;
31262;SDS011;17892;52.080;9.006;2023-11-21T09:26:13;3.92;;;1.95;;
31262;SDS011;17892;52.080;9.006;2023-11-21T09:28:41;3.53;;;1.65;;
31262;SDS011;17892;52.080;9.006;2023-11-21T09:31:11;4.35;;;2.03;;
31262;SDS011;17892;52.080;9.006;2023-11-21T09:33:40;3.83;;;1.63;;
31262;SDS011;17892;52.080;9.006;2023-11-21T09:36:26;4.55;;;2.00;;
31262;SDS011;17892;52.080;9.006;2023-11-21T09:38:56;3.50;;;2.00;;
31262;SDS011;17892;52.080;9.006;2023-11-21T09:41:37;5.07;;;2.03;;
31262;SDS011;17892;52.080;9.006;2023-11-21T09:44:15;2.95;;;1.27;;
31262;SDS011;17892;52.080;9.006;2023-11-21T09:47:07;5.38;;;2.10;;
31262;SDS011;17892;52.080;9.006;2023-11-21T09:49:45;5.60;;;2.70;;
31262;SDS011;17892;52.080;9.006;2023-11-21T09:52:28;3.90;;;2.00;;
31262;SDS011;17892;52.080;9.006;2023-11-21T09:54:55;3.65;;;1.63;;
31262;SDS011;17892;52.080;9.006;2023-11-21T09:57:32;4.60;;;2.20;;
31262;SDS011;17892;52.080;9.006;2023-11-21T10:00:32;3.95;;;1.85;;
31262;SDS011;17892;52.080;9.006;2023-11-21T10:02:58;4.40;;;1.90;;
31262;SDS011;17892;52.080;9.006;2023-11-21T10:05:26;3.92;;;1.70;;
31262;SDS011;17892;52.080;9.006;2023-11-21T10:07:53;3.15;;;1.40;;
31262;SDS011;17892;52.080;9.006;2023-11-21T10:10:25;2.90;;;1.17;;
31262;SDS011;17892;52.080;9.006;2023-11-21T10:12:54;3.22;;;1.65;;
31262;SDS011;17892;52.080;9.006;2023-11-21T10:15:29;3.05;;;1.60;;
31262;SDS011;17892;52.080;9.006;2023-11-21T10:18:01;3.53;;;1.90;;
31262;SDS011;17892;52.080;9.006;2023-11-21T10:20:34;2.95;;;1.58;;
31262;SDS011;17892;52.080;9.006;2023-11-21T10:23:07;3.40;;;1.60;;
31262;SDS011;17892;52.080;9.006;2023-11-21T10:25:44;3.88;;;1.90;;
31262;SDS011;17892;52.080;9.006;2023-11-21T10:28:10;4.10;;;2.03;;
31262;SDS011;17892;52.080;9.006;2023-11-21T10:30:41;2.95;;;1.50;;
31262;SDS011;17892;52.080;9.006;2023-11-21T10:33:10;4.05;;;1.52;;
31262;SDS011;17892;52.080;9.006;2023-11-21T10:35:43;2.80;;;1.48;;
31262;SDS011;17892;52.080;9.006;2023-11-21T10:38:22;4.53;;;1.98;;
31262;SDS011;17892;52.080;9.006;2023-11-21T10:40:49;2.90;;;1.60;;
31262;SDS011;17892;52.080;9.006;2023-11-21T10:43:16;3.88;;;1.80;;
31262;SDS011;17892;52.080;9.006;2023-11-21T10:46:08;2.92;;;1.58;;
31262;SDS011;17892;52.080;9.006;2023-11-21T10:48:34;2.70;;;1.58;;
31262;SDS011;17892;52.080;9.006;2023-11-21T10:51:06;4.18;;;2.00;;
31262;SDS011;17892;52.080;9.006;2023-11-21T10:53:39;3.97;;;2.03;;
31262;SDS011;17892;52.080;9.006;2023-11-21T10:56:20;3.80;;;1.80;;
31262;SDS011;17892;52.080;9.006;2023-11-21T10:58:52;3.95;;;2.03;;
31262;SDS011;17892;52.080;9.006;2023-11-21T11:01:19;5.43;;;2.70;;
31262;SDS011;17892;52.080;9.006;2023-11-21T11:03:56;7.30;;;3.75;;
31262;SDS011;17892;52.080;9.006;2023-11-21T11:06:22;6.18;;;2.67;;
31262;SDS011;17892;52.080;9.006;2023-11-21T11:09:12;5.70;;;3.13;;
31262;SDS011;17892;52.080;9.006;2023-11-21T11:11:44;5.45;;;2.67;;
31262;SDS011;17892;52.080;9.006;2023-11-21T11:14:40;5.57;;;3.13;;
31262;SDS011;17892;52.080;9.006;2023-11-21T11:17:17;4.95;;;2.78;;
31262;SDS011;17892;52.080;9.006;2023-11-21T11:19:49;5.85;;;3.28;;
31262;SDS011;17892;52.080;9.006;2023-11-21T11:28:07;5.93;;;3.10;;
31262;SDS011;17892;52.080;9.006;2023-11-21T11:33:38;6.63;;;3.75;;
31262;SDS011;17892;52.080;9.006;2023-11-21T11:36:28;6.32;;;3.58;;
31262;SDS011;17892;52.080;9.006;2023-11-21T11:39:26;4.82;;;2.47;;
31262;SDS011;17892;52.080;9.006;2023-11-21T11:42:06;4.70;;;2.60;;
31262;SDS011;17892;52.080;9.006;2023-11-21T11:44:52;7.07;;;3.88;;
31262;SDS011;17892;52.080;9.006;2023-11-21T11:47:20;6.10;;;3.30;;
31262;SDS011;17892;52.080;9.006;2023-11-21T11:50:08;5.97;;;3.60;;
31262;SDS011;17892;52.080;9.006;2023-11-21T11:55:17;6.45;;;3.45;;
31262;SDS011;17892;52.080;9.006;2023-11-21T11:57:46;8.93;;;4.28;;
31262;SDS011;17892;52.080;9.006;2023-11-21T12:00:20;7.85;;;3.38;;
31262;SDS011;17892;52.080;9.006;2023-11-21T12:02:58;5.65;;;2.80;;
31262;SDS011;17892;52.080;9.006;2023-11-21T12:05:31;6.13;;;2.92;;
31262;SDS011;17892;52.080;9.006;2023-11-21T12:08:01;5.55;;;2.47;;
31262;SDS011;17892;52.080;9.006;2023-11-21T12:10:29;5.35;;;3.03;;
31262;SDS011;17892;52.080;9.006;2023-11-21T12:12:57;8.57;;;3.00;;
31262;SDS011;17892;52.080;9.006;2023-11-21T12:15:25;4.75;;;2.55;;
31262;SDS011;17892;52.080;9.006;2023-11-21T12:17:54;5.13;;;2.65;;
31262;SDS011;17892;52.080;9.006;2023-11-21T12:20:20;5.03;;;2.35;;
31262;SDS011;17892;52.080;9.006;2023-11-21T12:22:49;4.85;;;2.75;;
31262;SDS011;17892;52.080;9.006;2023-11-21T12:25:16;4.97;;;2.53;;
31262;SDS011;17892;52.080;9.006;2023-11-21T12:27:46;6.15;;;3.40;;
31262;SDS011;17892;52.080;9.006;2023-11-21T12:30:15;4.57;;;2.35;;
31262;SDS011;17892;52.080;9.006;2023-11-21T12:32:43;5.05;;;2.70;;
31262;SDS011;17892;52.080;9.006;2023-11-21T12:35:11;6.03;;;3.08;;
31262;SDS011;17892;52.080;9.006;2023-11-21T12:37:38;5.07;;;2.58;;
31262;SDS011;17892;52.080;9.006;2023-11-21T12:40:06;6.68;;;3.05;;
31262;SDS011;17892;52.080;9.006;2023-11-21T12:42:33;6.13;;;2.67;;
31262;SDS011;17892;52.080;9.006;2023-11-21T12:45:33;4.30;;;2.40;;
31262;SDS011;17892;52.080;9.006;2023-11-21T12:50:32;5.70;;;2.90;;
31262;SDS011;17892;52.080;9.006;2023-11-21T12:53:08;5.20;;;2.47;;
31262;SDS011;17892;52.080;9.006;2023-11-21T12:55:38;5.53;;;2.30;;
31262;SDS011;17892;52.080;9.006;2023-11-21T12:58:05;3.67;;;1.83;;
31262;SDS011;17892;52.080;9.006;2023-11-21T13:00:44;3.67;;;2.05;;
31262;SDS011;17892;52.080;9.006;2023-11-21T13:03:12;4.65;;;1.80;;
31262;SDS011;17892;52.080;9.006;2023-11-21T13:05:45;4.35;;;2.38;;
31262;SDS011;17892;52.080;9.006;2023-11-21T13:08:16;3.90;;;2.10;;
31262;SDS011;17892;52.080;9.006;2023-11-21T13:10:46;4.10;;;2.17;;
31262;SDS011;17892;52.080;9.006;2023-11-21T13:13:14;4.93;;;2.72;;
31262;SDS011;17892;52.080;9.006;2023-11-21T13:18:16;4.70;;;2.60;;
31262;SDS011;17892;52.080;9.006;2023-11-21T13:20:42;5.43;;;3.08;;
31262;SDS011;17892;52.080;9.006;2023-11-21T13:23:09;5.72;;;3.15;;
31262;SDS011;17892;52.080;9.006;2023-11-21T13:25:41;5.97;;;3.25;;
31262;SDS011;17892;52.080;9.006;2023-11-21T13:28:07;5.55;;;2.50;;
31262;SDS011;17892;52.080;9.006;2023-11-21T13:30:34;5.32;;;2.80;;
31262;SDS011;17892;52.080;9.006;2023-11-21T13:33:01;4.75;;;2.28;;
31262;SDS011;17892;52.080;9.006;2023-11-21T13:35:31;4.15;;;2.08;;
31262;SDS011;17892;52.080;9.006;2023-11-21T13:38:18;4.35;;;2.35;;
31262;SDS011;17892;52.080;9.006;2023-11-21T13:40:51;5.50;;;2.70;;
31262;SDS011;17892;52.080;9.006;2023-11-21T13:43:23;4.82;;;2.30;;
31262;SDS011;17892;52.080;9.006;2023-11-21T13:45:51;5.82;;;2.95;;
31262;SDS011;17892;52.080;9.006;2023-11-21T13:48:26;5.50;;;2.72;;
31262;SDS011;17892;52.080;9.006;2023-11-21T13:51:05;4.55;;;2.58;;
31262;SDS011;17892;52.080;9.006;2023-11-21T13:53:45;5.18;;;2.88;;
31262;SDS011;17892;52.080;9.006;2023-11-21T13:56:17;5.38;;;2.45;;
31262;SDS011;17892;52.080;9.006;2023-11-21T13:58:50;7.55;;;2.90;;
31262;SDS011;17892;52.080;9.006;2023-11-21T14:01:20;4.65;;;2.38;;
31262;SDS011;17892;52.080;9.006;2023-11-21T14:03:57;4.68;;;2.90;;
31262;SDS011;17892;52.080;9.006;2023-11-21T14:06:43;5.85;;;3.22;;
31262;SDS011;17892;52.080;9.006;2023-11-21T14:09:21;4.97;;;2.78;;
31262;SDS011;17892;52.080;9.006;2023-11-21T14:14:19;4.82;;;2.50;;
31262;SDS011;17892;52.080;9.006;2023-11-21T14:16:46;4.47;;;2.08;;
31262;SDS011;17892;52.080;9.006;2023-11-21T14:19:12;5.10;;;2.70;;
31262;SDS011;17892;52.080;9.006;2023-11-21T14:21:42;5.68;;;2.53;;
31262;SDS011;17892;52.080;9.006;2023-11-21T14:24:14;4.45;;;2.53;;
31262;SDS011;17892;52.080;9.006;2023-11-21T14:26:43;4.80;;;2.70;;
31262;SDS011;17892;52.080;9.006;2023-11-21T14:29:13;4.30;;;2.35;;
31262;SDS011;17892;52.080;9.006;2023-11-21T14:31:44;4.32;;;2.17;;
31262;SDS011;17892;52.080;9.006;2023-11-21T14:34:11;5.57;;;2.65;;
31262;SDS011;17892;52.080;9.006;2023-11-21T14:36:38;4.82;;;2.25;;
31262;SDS011;17892;52.080;9.006;2023-11-21T14:39:04;4.95;;;2.40;;
31262;SDS011;17892;52.080;9.006;2023-11-21T14:41:41;6.10;;;2.63;;
31262;SDS011;17892;52.080;9.006;2023-11-21T14:44:08;4.97;;;2.58;;
31262;SDS011;17892;52.080;9.006;2023-11-21T14:46:37;4.22;;;2.15;;
31262;SDS011;17892;52.080;9.006;2023-11-21T14:49:04;5.53;;;3.05;;
31262;SDS011;17892;52.080;9.006;2023-11-21T14:51:57;5.55;;;3.13;;
31262;SDS011;17892;52.080;9.006;2023-11-21T14:54:35;4.20;;;2.30;;
31262;SDS011;17892;52.080;9.006;2023-11-21T14:57:10;5.03;;;2.70;;
31262;SDS011;17892;52.080;9.006;2023-11-21T14:59:49;4.43;;;2.67;;
31262;SDS011;17892;52.080;9.006;2023-11-21T15:02:22;3.85;;;2.17;;
31262;SDS011;17892;52.080;9.006;2023-11-21T15:05:08;5.25;;;2.60;;
31262;SDS011;17892;52.080;9.006;2023-11-21T15:07:40;4.68;;;2.85;;
31262;SDS011;17892;52.080;9.006;2023-11-21T15:10:06;4.82;;;3.13;;
31262;SDS011;17892;52.080;9.006;2023-11-21T15:12:38;4.05;;;2.28;;
31262;SDS011;17892;52.080;9.006;2023-11-21T15:15:05;4.22;;;2.03;;
31262;SDS011;17892;52.080;9.006;2023-11-21T15:17:35;5.18;;;2.75;;